Time;durP1;ratioP1;P1;durP2;ratioP2;P2;SDS_P1;SDS_P2;PMS_P1;PMS_P2;Temp;Humidity;BMP_temperature;BMP_pressure;BME280_temperature;BME280_humidity;BME280_pressure;Samples;Min_cycle;Max_cycle;Signal;HPM_P1;HPM_P2
2022/02/09 00:02:03;;;;;;;0.30;0.23;;;6.80;99.90;;;;;;5074367;28;20425;-78
2022/02/09 00:04:36;;;;;;;0.80;0.80;;;6.80;99.90;;;;;;5074260;28;20488;-78
2022/02/09 00:07:08;;;;;;;0.30;0.20;;;6.80;99.90;;;;;;5073849;28;20488;-79
2022/02/09 00:09:35;;;;;;;0.50;0.50;;;6.80;99.90;;;;;;5073845;28;20487;-79
2022/02/09 00:12:07;;;;;;;0.30;0.30;;;6.80;99.90;;;;;;5074130;28;20541;-79
2022/02/09 00:14:43;;;;;;;0.30;0.20;;;6.80;99.90;;;;;;5074066;28;20528;-79
2022/02/09 00:20:14;;;;;;;0.30;0.30;;;6.80;99.90;;;;;;5073893;28;20459;-78
2022/02/09 00:23:12;;;;;;;0.50;0.50;;;6.80;99.90;;;;;;5073600;28;20830;-78
2022/02/09 00:28:43;;;;;;;0.30;0.30;;;6.70;99.90;;;;;;5052698;28;20531;-77
2022/02/09 00:37:05;;;;;;;0.50;0.50;;;6.80;99.90;;;;;;5073555;28;20581;-78
2022/02/09 00:39:45;;;;;;;0.30;0.30;;;6.70;99.90;;;;;;5073143;28;20991;-78
2022/02/09 00:42:31;;;;;;;0.40;0.30;;;6.70;99.90;;;;;;5073694;28;20428;-78
2022/02/09 01:40:28;;;;;;;0.30;0.20;;;6.40;99.90;;;;;;5072819;28;20456;-78
2022/02/09 01:55:24;;;;;;;0.30;0.20;;;6.50;99.90;;;;;;5072717;28;20397;-78
2022/02/09 01:56:48;;;;;;;0.30;0.20;;;6.40;99.90;;;;;;5072606;28;20522;-77
2022/02/09 01:59:15;;;;;;;0.30;0.20;;;6.50;99.90;;;;;;5072867;28;20459;-77
2022/02/09 02:01:43;;;;;;;0.30;0.20;;;6.40;99.90;;;;;;5072802;28;20479;-78
2022/02/09 02:04:09;;;;;;;0.53;0.40;;;6.40;99.90;;;;;;5072515;28;20963;-78
2022/02/09 02:06:36;;;;;;;0.30;0.20;;;6.40;99.90;;;;;;5072491;28;20469;-77
2022/02/09 02:09:04;;;;;;;0.30;0.20;;;6.40;99.90;;;;;;5072519;28;20923;-77
2022/02/09 02:11:35;;;;;;;0.30;0.20;;;6.40;99.90;;;;;;5072780;28;20444;-77
2022/02/09 02:14:15;;;;;;;0.30;0.30;;;6.40;99.90;;;;;;5072449;28;20931;-77
2022/02/09 02:16:47;;;;;;;0.30;0.30;;;6.40;99.90;;;;;;5076093;28;20468;-77
2022/02/09 02:19:28;;;;;;;0.30;0.20;;;6.40;99.90;;;;;;5076012;28;20776;-77
2022/02/09 02:22:05;;;;;;;0.30;0.20;;;6.40;99.90;;;;;;5076246;28;20417;-78
2022/02/09 02:27:43;;;;;;;0.43;0.40;;;6.30;99.90;;;;;;5076089;28;20444;-79
2022/02/09 02:30:41;;;;;;;0.30;0.30;;;6.30;99.90;;;;;;5076137;28;20425;-79
2022/02/09 02:33:38;;;;;;;0.30;0.20;;;6.30;99.90;;;;;;5075902;28;20525;-78
2022/02/09 02:36:26;;;;;;;0.30;0.20;;;6.40;99.90;;;;;;5075924;28;20472;-78
2022/02/09 03:09:18;;;;;;;0.30;0.30;;;6.10;99.90;;;;;;5075469;28;20455;-78
2022/02/09 03:12:02;;;;;;;0.30;0.30;;;6.10;99.90;;;;;;5075372;28;20429;-78
2022/02/09 03:14:34;;;;;;;0.30;0.30;;;6.10;99.90;;;;;;5075324;28;20429;-78
2022/02/09 03:17:05;;;;;;;0.30;0.30;;;6.10;99.90;;;;;;5075218;28;20471;-78
2022/02/09 03:19:45;;;;;;;0.30;0.20;;;6.10;99.90;;;;;;5074946;28;20474;-78
2022/02/09 03:22:22;;;;;;;0.40;0.40;;;6.10;99.90;;;;;;5075205;28;20433;-78
2022/02/09 03:25:20;;;;;;;2.87;0.57;;;6.10;99.90;;;;;;5075130;28;20771;-78
2022/02/09 03:44:51;;;;;;;0.30;0.20;;;5.70;99.90;;;;;;5074487;28;20915;-79
2022/02/09 03:47:32;;;;;;;0.30;0.20;;;5.70;99.90;;;;;;5074555;28;20555;-79
2022/02/09 03:55:40;;;;;;;0.30;0.20;;;5.30;99.90;;;;;;5065039;28;20915;-79
2022/02/09 03:58:08;;;;;;;0.30;0.30;;;5.30;99.90;;;;;;5074669;28;20490;-79
2022/02/09 04:00:39;;;;;;;0.30;0.30;;;5.20;99.90;;;;;;5074805;28;20488;-79
2022/02/09 04:03:11;;;;;;;0.30;0.30;;;5.20;99.90;;;;;;5074013;28;20900;-78
2022/02/09 04:05:38;;;;;;;0.30;0.30;;;5.20;99.90;;;;;;5074167;28;20433;-79
2022/02/09 04:08:08;;;;;;;0.30;0.20;;;5.20;99.90;;;;;;5072919;28;20826;-78
2022/02/09 04:10:39;;;;;;;0.30;0.30;;;5.20;99.90;;;;;;5074185;28;20430;-79
2022/02/09 04:13:14;;;;;;;0.30;0.20;;;5.20;99.90;;;;;;5073849;28;20429;-79
2022/02/09 04:15:52;;;;;;;0.30;0.20;;;5.20;99.90;;;;;;5073673;28;20444;-79
2022/02/09 04:18:34;;;;;;;0.30;0.30;;;5.20;99.90;;;;;;5074035;28;20540;-79
2022/02/09 04:37:41;;;;;;;0.30;0.20;;;5.20;99.90;;;;;;5073081;28;20444;-79
2022/02/09 04:40:13;;;;;;;0.30;0.30;;;5.20;99.90;;;;;;5073356;28;20919;-79
2022/02/09 04:42:53;;;;;;;0.40;0.30;;;5.20;99.90;;;;;;5073670;28;20437;-78
2022/02/09 04:45:42;;;;;;;0.30;0.30;;;5.20;99.90;;;;;;5073660;28;20429;-79
2022/02/09 04:48:32;;;;;;;0.30;0.30;;;5.20;99.90;;;;;;5073798;28;20800;-79
2022/02/09 04:51:03;;;;;;;0.30;0.20;;;5.30;99.90;;;;;;5073574;28;20444;-79
2022/02/09 04:56:24;;;;;;;0.30;0.20;;;5.20;99.90;;;;;;5072972;28;20536;-79
2022/02/09 04:59:04;;;;;;;0.30;0.20;;;5.30;99.90;;;;;;5073323;28;20425;-79
2022/02/09 05:01:57;;;;;;;0.30;0.20;;;5.20;99.90;;;;;;5073453;28;20471;-79
2022/02/09 05:04:44;;;;;;;1.23;1.23;;;5.20;99.90;;;;;;5073009;28;20441;-79
2022/02/09 05:18:25;;;;;;;0.30;0.27;;;5.10;99.90;;;;;;5073352;28;20489;-79
2022/02/09 05:23:48;;;;;;;0.53;0.53;;;5.10;99.90;;;;;;5073268;28;20417;-78
2022/02/09 05:26:24;;;;;;;0.30;0.20;;;5.10;99.90;;;;;;5073177;28;20827;-78
2022/02/09 05:28:51;;;;;;;0.90;0.80;;;5.10;99.90;;;;;;5072914;28;20888;-79
2022/02/09 05:31:18;;;;;;;0.30;0.30;;;5.00;99.90;;;;;;5073145;28;20839;-79
2022/02/09 05:33:47;;;;;;;0.30;0.20;;;5.10;99.90;;;;;;5073120;28;20451;-79
2022/02/09 05:36:16;;;;;;;0.30;0.30;;;5.10;99.90;;;;;;5072683;28;20515;-77
2022/02/09 05:38:43;;;;;;;0.30;0.27;;;5.10;99.90;;;;;;5072715;28;20959;-77
2022/02/09 05:41:10;;;;;;;0.30;0.30;;;5.10;99.90;;;;;;5072957;28;20480;-77
2022/02/09 05:43:37;;;;;;;0.37;0.30;;;5.10;99.90;;;;;;5072691;28;20491;-77
2022/02/09 05:46:32;;;;;;;0.30;0.20;;;5.10;99.90;;;;;;5072896;28;20469;-77
2022/02/09 05:49:26;;;;;;;0.30;0.30;;;5.10;99.90;;;;;;5072551;28;20889;-77
2022/02/09 05:51:58;;;;;;;0.67;0.33;;;5.10;99.90;;;;;;5076765;28;20437;-77
2022/02/09 05:54:44;;;;;;;0.30;0.30;;;5.00;99.90;;;;;;5076493;28;20535;-77
2022/02/09 05:57:24;;;;;;;0.30;0.20;;;5.00;99.90;;;;;;5076370;28;20469;-77
2022/02/09 05:59:50;;;;;;;0.30;0.20;;;4.90;99.90;;;;;;5076666;28;20439;-77
2022/02/09 06:02:19;;;;;;;0.30;0.30;;;4.80;99.90;;;;;;5076504;28;20485;-77
2022/02/09 06:04:46;;;;;;;0.30;0.30;;;4.80;99.90;;;;;;5076502;28;20510;-77
2022/02/09 06:07:16;;;;;;;0.40;0.40;;;4.60;99.90;;;;;;5076096;28;20484;-77
2022/02/09 06:09:43;;;;;;;0.30;0.20;;;4.60;99.90;;;;;;5076397;28;20506;-77
2022/02/09 06:12:15;;;;;;;0.30;0.30;;;4.60;99.90;;;;;;5076025;28;20816;-77
2022/02/09 06:15:02;;;;;;;0.30;0.30;;;4.50;99.90;;;;;;5076460;28;20520;-77
2022/02/09 06:20:14;;;;;;;0.30;0.20;;;4.60;99.90;;;;;;5076356;28;20483;-78
2022/02/09 06:22:42;;;;;;;0.33;0.30;;;4.60;99.90;;;;;;5075886;28;20988;-79
2022/02/09 06:25:09;;;;;;;0.30;0.30;;;4.60;99.90;;;;;;5076172;28;20482;-79
2022/02/09 06:27:36;;;;;;;0.30;0.30;;;4.50;99.90;;;;;;5075722;28;20983;-79
2022/02/09 06:30:03;;;;;;;0.50;0.30;;;4.40;99.90;;;;;;5076107;28;20440;-79
2022/02/09 06:32:29;;;;;;;0.30;0.30;;;4.40;99.90;;;;;;5076055;28;20448;-79
2022/02/09 06:34:57;;;;;;;0.30;0.30;;;4.30;99.90;;;;;;5076095;28;20452;-79
2022/02/09 06:37:34;;;;;;;0.30;0.20;;;4.20;99.90;;;;;;5075891;28;20481;-79
2022/02/09 06:40:03;;;;;;;0.30;0.30;;;4.10;99.90;;;;;;5076021;28;20433;-79
2022/02/09 06:42:31;;;;;;;0.30;0.30;;;4.10;99.90;;;;;;5075486;28;20488;-79
2022/02/09 06:45:04;;;;;;;1.67;0.40;;;4.10;99.90;;;;;;5075913;28;20530;-79
2022/02/09 06:47:30;;;;;;;0.30;0.30;;;4.00;99.90;;;;;;5075826;28;20548;-79
2022/02/09 06:50:00;;;;;;;0.40;0.30;;;3.90;99.90;;;;;;5075582;28;20450;-78
2022/02/09 06:52:27;;;;;;;0.30;0.30;;;3.80;99.90;;;;;;5075831;28;20453;-79
2022/02/09 06:55:12;;;;;;;0.40;0.40;;;3.80;99.90;;;;;;5075659;28;20535;-77
2022/02/09 06:58:00;;;;;;;0.30;0.30;;;3.80;99.90;;;;;;5075227;28;20473;-77
2022/02/09 07:00:29;;;;;;;0.30;0.30;;;3.70;99.90;;;;;;5075329;28;20429;-78
2022/02/09 07:02:56;;;;;;;0.30;0.30;;;3.70;99.90;;;;;;5075565;28;20460;-77
2022/02/09 07:05:23;;;;;;;0.50;0.50;;;3.70;99.90;;;;;;5075234;28;20445;-77
2022/02/09 07:07:50;;;;;;;0.30;0.30;;;3.60;99.90;;;;;;5074912;28;20491;-78
2022/02/09 07:10:17;;;;;;;0.30;0.20;;;3.70;99.90;;;;;;5075129;28;20444;-78
2022/02/09 07:12:45;;;;;;;0.30;0.20;;;3.70;99.90;;;;;;5075505;28;20437;-78
2022/02/09 07:15:16;;;;;;;0.47;0.40;;;3.60;99.90;;;;;;5077596;28;20445;-78
2022/02/09 07:17:44;;;;;;;0.30;0.30;;;3.60;99.90;;;;;;5081042;28;20971;-78
2022/02/09 07:20:17;;;;;;;0.30;0.30;;;3.60;99.90;;;;;;5074880;28;20820;-78
2022/02/09 07:22:45;;;;;;;0.40;0.40;;;3.60;99.90;;;;;;5075113;28;20803;-78
2022/02/09 07:25:15;;;;;;;0.40;0.30;;;3.70;99.90;;;;;;5074807;28;20936;-78
2022/02/09 07:27:50;;;;;;;0.47;0.47;;;3.70;99.90;;;;;;5075015;28;20475;-78
2022/02/09 07:30:22;;;;;;;0.30;0.30;;;3.70;99.90;;;;;;5074993;28;20433;-78
2022/02/09 07:32:51;;;;;;;0.30;0.20;;;3.70;99.90;;;;;;5074947;28;20429;-78
2022/02/09 07:35:17;;;;;;;0.30;0.30;;;3.60;99.90;;;;;;5074896;28;20766;-78
2022/02/09 07:37:44;;;;;;;0.30;0.30;;;3.60;99.90;;;;;;5074755;28;20468;-78
2022/02/09 07:40:13;;;;;;;3.00;0.43;;;3.60;99.90;;;;;;5074803;28;20449;-78
2022/02/09 07:42:45;;;;;;;0.30;0.30;;;3.60;99.90;;;;;;5074642;28;20543;-78
2022/02/09 07:45:41;;;;;;;0.30;0.20;;;3.60;99.90;;;;;;5074359;28;20909;-78
2022/02/09 07:48:40;;;;;;;0.30;0.30;;;3.60;99.90;;;;;;5074599;28;20460;-78
2022/02/09 07:51:26;;;;;;;0.30;0.20;;;3.70;99.90;;;;;;5074473;28;20444;-78
2022/02/09 07:53:59;;;;;;;0.30;0.30;;;3.70;99.90;;;;;;5074480;28;20483;-78
2022/02/09 07:56:27;;;;;;;2.33;2.03;;;3.70;99.90;;;;;;5074052;28;20468;-78
2022/02/09 07:58:54;;;;;;;0.70;0.50;;;3.80;99.90;;;;;;5074364;28;20440;-78
2022/02/09 08:01:21;;;;;;;0.30;0.30;;;3.80;99.90;;;;;;5074344;28;20471;-78
2022/02/09 08:03:50;;;;;;;0.50;0.50;;;3.80;99.90;;;;;;5074286;28;20435;-78
2022/02/09 08:06:17;;;;;;;0.53;0.47;;;3.90;99.90;;;;;;5073860;28;20472;-78
2022/02/09 08:08:46;;;;;;;0.77;0.77;;;3.80;99.90;;;;;;5073863;28;20480;-78
2022/02/09 08:11:18;;;;;;;0.30;0.30;;;3.90;99.90;;;;;;5074206;28;20520;-78
2022/02/09 08:27:39;;;;;;;0.30;0.20;;;4.20;99.90;;;;;;5056203;28;20448;-78
2022/02/09 08:30:21;;;;;;;0.30;0.20;;;4.20;99.90;;;;;;5073860;28;20440;-78
2022/02/09 08:32:56;;;;;;;0.30;0.20;;;4.30;99.90;;;;;;5073775;28;20511;-78
2022/02/09 08:35:24;;;;;;;0.30;0.30;;;4.40;99.90;;;;;;5073811;28;20431;-78
2022/02/09 08:37:52;;;;;;;0.30;0.20;;;4.40;99.90;;;;;;5073647;28;20545;-78
2022/02/09 08:40:22;;;;;;;0.30;0.30;;;4.50;99.90;;;;;;5073371;28;20455;-78
2022/02/09 08:42:48;;;;;;;0.40;0.30;;;4.60;99.90;;;;;;5073603;28;20477;-78
2022/02/09 08:45:15;;;;;;;0.43;0.40;;;4.70;99.90;;;;;;5073332;28;20453;-78
2022/02/09 08:47:42;;;;;;;3.50;0.60;;;4.80;99.90;;;;;;5073240;28;20990;-78
2022/02/09 08:50:10;;;;;;;0.30;0.30;;;5.00;99.90;;;;;;5073571;28;20449;-78
2022/02/09 08:52:38;;;;;;;0.30;0.30;;;5.10;99.90;;;;;;5073537;28;20452;-77
2022/02/09 08:55:06;;;;;;;0.30;0.20;;;5.30;99.90;;;;;;5073554;28;20451;-78
2022/02/09 08:57:34;;;;;;;0.30;0.23;;;5.60;99.90;;;;;;5073416;28;20469;-78
2022/02/09 09:00:08;;;;;;;0.30;0.20;;;5.80;99.90;;;;;;5073475;28;20452;-78
2022/02/09 09:02:35;;;;;;;0.30;0.20;;;6.10;99.90;;;;;;5073404;28;20557;-78
2022/02/09 09:05:12;;;;;;;0.30;0.30;;;6.60;99.90;;;;;;5073368;28;20444;-78
2022/02/09 09:07:42;;;;;;;0.30;0.30;;;7.30;99.90;;;;;;5073457;28;20480;-78
2022/02/09 09:10:16;;;;;;;0.33;0.30;;;8.30;99.90;;;;;;5073113;28;20429;-78
2022/02/09 10:02:50;;;;;;;0.50;0.50;;;20.80;62.70;;;;;;5076613;28;20213;-80
2022/02/09 10:33:17;;;;;;;0.50;0.40;;;21.20;57.70;;;;;;5075721;28;20427;-78
2022/02/09 10:35:57;;;;;;;0.40;0.40;;;19.80;60.50;;;;;;5075287;28;20474;-78
2022/02/09 10:38:28;;;;;;;0.47;0.43;;;18.70;62.50;;;;;;5076043;28;20440;-78
2022/02/09 10:41:07;;;;;;;1.17;0.50;;;17.80;64.30;;;;;;5076031;28;20429;-78
2022/02/09 10:43:36;;;;;;;1.43;0.40;;;17.90;65.30;;;;;;5075879;28;20471;-78
2022/02/09 10:46:11;;;;;;;0.43;0.40;;;17.90;65.40;;;;;;5075846;28;20456;-78
2022/02/09 10:48:47;;;;;;;0.40;0.33;;;17.70;65.50;;;;;;5075568;28;20915;-78
2022/02/09 10:51:28;;;;;;;0.40;0.30;;;17.60;66.70;;;;;;5076187;28;20448;-79
2022/02/09 10:54:17;;;;;;;0.40;0.40;;;17.30;68.90;;;;;;5075777;28;20440;-79
2022/02/09 10:56:46;;;;;;;0.60;0.60;;;16.90;70.10;;;;;;5071114;28;20541;-79
2022/02/09 10:59:17;;;;;;;0.40;0.30;;;16.40;70.20;;;;;;5075697;28;20428;-79
2022/02/09 11:01:45;;;;;;;1.57;0.47;;;16.30;72.00;;;;;;5075548;28;20432;-79
2022/02/09 11:04:13;;;;;;;7.97;0.50;;;16.20;70.50;;;;;;5075545;28;20797;-79
2022/02/09 11:06:41;;;;;;;0.30;0.30;;;16.00;71.70;;;;;;5075128;28;20468;-80
2022/02/09 11:09:10;;;;;;;0.50;0.37;;;15.60;72.20;;;;;;5075522;28;20425;-80
2022/02/09 11:11:40;;;;;;;0.40;0.40;;;15.00;74.00;;;;;;5075351;28;20460;-80
2022/02/09 11:14:10;;;;;;;0.30;0.30;;;14.70;75.30;;;;;;5075308;28;20480;-79
2022/02/09 11:16:37;;;;;;;1.03;0.40;;;14.30;77.40;;;;;;5074955;28;21037;-80
2022/02/09 11:19:06;;;;;;;0.50;0.30;;;14.00;78.80;;;;;;5075269;28;20449;-80
2022/02/09 11:21:36;;;;;;;0.30;0.30;;;13.80;79.40;;;;;;5075322;28;20453;-80
2022/02/09 11:24:16;;;;;;;0.40;0.30;;;13.60;79.60;;;;;;5075242;28;20445;-80
2022/02/09 11:26:49;;;;;;;0.30;0.30;;;13.40;81.70;;;;;;5075083;28;20469;-80
2022/02/09 11:29:37;;;;;;;0.30;0.20;;;13.30;82.60;;;;;;5075074;28;20433;-80
2022/02/09 11:32:29;;;;;;;0.50;0.40;;;13.00;84.00;;;;;;5075092;28;20429;-80
2022/02/09 11:35:21;;;;;;;0.30;0.20;;;13.00;86.70;;;;;;5074960;28;20433;-79
2022/02/09 11:40:37;;;;;;;0.53;0.30;;;13.00;88.60;;;;;;5074240;28;20842;-79
2022/02/09 11:43:49;;;;;;;0.30;0.30;;;12.90;89.30;;;;;;5074737;28;20510;-79
2022/02/09 12:10:22;;;;;;;0.40;0.30;;;12.80;92.30;;;;;;5074377;28;20499;-80
2022/02/09 12:13:01;;;;;;;0.30;0.30;;;12.60;92.90;;;;;;5074250;28;20483;-79
2022/02/09 12:18:31;;;;;;;0.30;0.20;;;12.40;94.00;;;;;;5071936;28;20452;-80
2022/02/09 12:21:01;;;;;;;0.50;0.50;;;12.40;94.00;;;;;;5074249;28;20484;-80
2022/02/09 12:23:40;;;;;;;0.30;0.30;;;12.30;94.80;;;;;;5074064;28;20559;-79
2022/02/09 12:26:12;;;;;;;0.30;0.30;;;12.20;94.50;;;;;;5073959;28;20518;-79
2022/02/09 12:28:42;;;;;;;0.40;0.30;;;12.10;95.20;;;;;;5073936;28;20813;-79
2022/02/09 12:31:11;;;;;;;0.40;0.30;;;12.10;95.80;;;;;;5073989;28;20787;-79
2022/02/09 12:33:42;;;;;;;0.83;0.40;;;12.00;96.10;;;;;;5073926;28;20447;-79
2022/02/09 12:36:13;;;;;;;0.30;0.20;;;11.90;96.20;;;;;;5073426;28;20522;-79
2022/02/09 12:38:42;;;;;;;0.30;0.20;;;11.80;96.70;;;;;;5073771;28;20528;-79
2022/02/09 12:41:14;;;;;;;0.87;0.40;;;11.90;97.30;;;;;;5073370;28;20835;-79
2022/02/09 12:43:49;;;;;;;0.30;0.30;;;11.80;98.20;;;;;;5073606;28;20468;-80
2022/02/09 12:46:16;;;;;;;0.30;0.30;;;11.70;98.40;;;;;;5073634;28;20469;-80
2022/02/09 12:48:43;;;;;;;0.40;0.30;;;11.60;99.20;;;;;;5073588;28;20455;-82
2022/02/09 12:51:11;;;;;;;1.67;0.40;;;11.60;99.90;;;;;;5073199;28;20940;-83
2022/02/09 12:53:38;;;;;;;0.40;0.40;;;11.60;99.50;;;;;;5073495;28;20444;-80
2022/02/09 12:56:20;;;;;;;0.30;0.20;;;11.60;99.70;;;;;;5073462;28;20460;-78
2022/02/09 12:58:56;;;;;;;0.40;0.30;;;11.60;99.90;;;;;;5073208;28;20437;-79
2022/02/09 13:01:23;;;;;;;0.40;0.30;;;11.60;99.90;;;;;;5073526;28;20428;-80
2022/02/09 13:03:50;;;;;;;0.40;0.30;;;11.60;99.90;;;;;;5073071;28;20483;-80
2022/02/09 13:06:17;;;;;;;0.40;0.30;;;11.50;99.90;;;;;;5073602;28;20582;-80
2022/02/09 13:08:51;;;;;;;0.40;0.30;;;11.50;99.90;;;;;;5073150;28;20487;-80
2022/02/09 13:11:26;;;;;;;0.33;0.33;;;11.50;99.90;;;;;;5073506;28;20431;-80
2022/02/09 13:13:59;;;;;;;0.50;0.30;;;11.40;99.90;;;;;;5073423;28;20437;-80
2022/02/09 13:16:39;;;;;;;0.30;0.20;;;11.40;99.90;;;;;;5073352;28;20567;-80
2022/02/09 13:19:21;;;;;;;0.30;0.20;;;11.30;99.90;;;;;;5073881;28;20440;-80
2022/02/09 14:18:11;;;;;;;0.40;0.30;;;11.50;99.90;;;;;;5053512;28;20448;-79
2022/02/09 14:24:01;;;;;;;0.30;0.20;;;11.40;99.90;;;;;;5076322;28;20530;-79
2022/02/09 14:35:04;;;;;;;0.30;0.30;;;11.40;99.90;;;;;;5076173;28;20439;-80
2022/02/09 14:54:15;;;;;;;0.43;0.43;;;11.00;99.90;;;;;;5051266;28;20566;-80
2022/02/09 14:56:55;;;;;;;0.30;0.20;;;11.00;99.90;;;;;;5075664;28;20862;-80
2022/02/09 14:59:33;;;;;;;0.30;0.30;;;11.10;99.90;;;;;;5075688;28;20428;-80
2022/02/09 15:02:07;;;;;;;0.30;0.30;;;11.10;99.90;;;;;;5075611;28;20429;-80
2022/02/09 15:04:50;;;;;;;0.30;0.20;;;11.10;99.90;;;;;;5075548;28;20465;-80
2022/02/09 15:07:28;;;;;;;0.87;0.30;;;11.20;99.90;;;;;;5075160;28;20491;-80
2022/02/09 15:10:00;;;;;;;2.93;1.30;;;11.10;99.90;;;;;;5075499;28;20441;-80
2022/02/09 15:12:31;;;;;;;0.30;0.30;;;11.10;99.90;;;;;;5075407;28;20520;-80
2022/02/09 15:15:14;;;;;;;0.30;0.20;;;11.20;99.90;;;;;;5075408;28;20516;-80
2022/02/09 15:18:14;;;;;;;0.30;0.20;;;11.10;99.90;;;;;;5075266;28;20530;-80
2022/02/09 15:20:45;;;;;;;0.30;0.30;;;11.10;99.90;;;;;;5074838;28;20528;-80
2022/02/09 15:23:15;;;;;;;0.40;0.30;;;11.10;99.90;;;;;;5074555;28;20504;-80
2022/02/09 15:25:42;;;;;;;0.30;0.20;;;11.10;99.90;;;;;;5074956;28;20532;-79
2022/02/09 15:28:10;;;;;;;0.30;0.30;;;11.10;99.90;;;;;;5074763;28;20453;-79
2022/02/09 15:30:45;;;;;;;0.30;0.20;;;11.10;99.90;;;;;;5075015;28;20461;-79
2022/02/09 15:33:13;;;;;;;0.30;0.30;;;11.10;99.90;;;;;;5074920;28;20789;-79
2022/02/09 15:35:42;;;;;;;2.20;0.30;;;11.10;99.90;;;;;;5074812;28;20448;-80
2022/02/09 15:38:13;;;;;;;0.57;0.30;;;11.00;99.90;;;;;;5074865;28;20449;-79
2022/02/09 15:40:51;;;;;;;0.30;0.20;;;10.90;99.90;;;;;;5074585;28;20905;-79
2022/02/09 15:43:40;;;;;;;0.30;0.30;;;10.90;99.90;;;;;;5074433;28;20995;-79
2022/02/09 15:57:28;;;;;;;0.30;0.20;;;10.60;99.90;;;;;;5074201;28;20488;-79
2022/02/09 16:05:42;;;;;;;0.30;0.30;;;10.40;99.90;;;;;;5074129;28;20432;-80
2022/02/09 16:08:33;;;;;;;0.30;0.30;;;10.40;99.90;;;;;;5073869;28;20484;-80
2022/02/09 16:11:20;;;;;;;0.40;0.30;;;10.30;99.90;;;;;;5074298;28;20472;-80
2022/02/09 16:17:18;;;;;;;0.30;0.20;;;10.20;99.90;;;;;;5073885;28;20813;-80
2022/02/09 16:22:29;;;;;;;0.30;0.30;;;9.90;99.90;;;;;;5073411;28;20435;-79
2022/02/09 16:25:18;;;;;;;0.40;0.30;;;9.80;99.90;;;;;;5073955;28;20465;-79
2022/02/09 16:33:18;;;;;;;0.30;0.30;;;9.70;99.90;;;;;;5050574;28;20504;-80
2022/02/09 16:44:17;;;;;;;0.40;0.30;;;9.40;99.90;;;;;;5090724;28;20530;-79
2022/02/09 16:44:41;;;;;;;0.30;0.30;;;9.20;99.90;;;;;;5090716;28;20553;-78
2022/02/09 16:47:23;;;;;;;0.30;0.20;;;9.10;99.90;;;;;;5090407;28;20480;-77
2022/02/09 16:49:56;;;;;;;0.30;0.20;;;9.10;99.90;;;;;;5090846;28;20428;-78
2022/02/09 16:52:33;;;;;;;0.30;0.30;;;9.00;99.90;;;;;;5090723;28;20447;-78
2022/02/09 16:55:21;;;;;;;0.30;0.20;;;9.00;99.90;;;;;;5090441;28;20929;-77
2022/02/09 17:19:49;;;;;;;0.30;0.30;;;8.20;99.90;;;;;;5090302;28;20760;-78
2022/02/09 17:22:16;;;;;;;0.30;0.30;;;8.10;99.90;;;;;;5090203;28;20852;-78
2022/02/09 17:24:43;;;;;;;0.30;0.20;;;8.20;99.90;;;;;;5090206;28;20424;-78
2022/02/09 17:27:17;;;;;;;0.30;0.20;;;8.20;99.90;;;;;;5089976;28;20582;-78
2022/02/09 17:30:02;;;;;;;0.30;0.30;;;8.20;99.90;;;;;;5089850;28;20424;-78
2022/02/09 17:32:36;;;;;;;0.30;0.30;;;8.20;99.90;;;;;;5090112;28;20440;-78
2022/02/09 17:35:10;;;;;;;0.30;0.20;;;8.20;99.90;;;;;;5090191;28;20535;-77
2022/02/09 17:37:55;;;;;;;0.30;0.30;;;8.10;99.90;;;;;;5089553;28;20912;-78
2022/02/09 17:54:23;;;;;;;0.80;0.60;;;7.50;99.90;;;;;;5076203;28;20544;-78
2022/02/09 17:56:53;;;;;;;0.30;0.20;;;7.50;99.90;;;;;;5075790;28;20886;-77
2022/02/09 17:59:24;;;;;;;0.40;0.37;;;7.40;99.90;;;;;;5075744;28;20920;-78
2022/02/09 18:01:51;;;;;;;0.50;0.30;;;7.30;99.90;;;;;;5076025;28;20441;-77
2022/02/09 18:04:20;;;;;;;0.63;0.60;;;7.20;99.90;;;;;;5075992;28;20421;-77
2022/02/09 18:06:54;;;;;;;0.30;0.30;;;7.10;99.90;;;;;;5075508;28;20998;-78
2022/02/09 18:09:28;;;;;;;0.30;0.30;;;7.10;99.90;;;;;;5075933;28;20423;-78
2022/02/09 18:12:05;;;;;;;0.40;0.40;;;7.00;99.90;;;;;;5075513;28;20818;-78
2022/02/09 18:15:01;;;;;;;0.40;0.40;;;6.90;99.90;;;;;;5076337;28;20440;-78
2022/02/09 18:26:16;;;;;;;0.30;0.20;;;6.70;99.90;;;;;;5075575;28;20417;-77
2022/02/09 18:31:34;;;;;;;0.30;0.30;;;6.50;99.90;;;;;;5075499;28;20463;-78
2022/02/09 18:34:33;;;;;;;0.30;0.30;;;6.40;99.90;;;;;;5075107;28;20475;-77
2022/02/09 18:45:16;;;;;;;0.30;0.30;;;6.40;99.90;;;;;;5074880;28;20455;-77
2022/02/09 18:47:56;;;;;;;0.30;0.30;;;6.40;99.90;;;;;;5075021;28;20902;-77
2022/02/09 19:01:57;;;;;;;0.50;0.33;;;6.40;99.90;;;;;;5073858;28;20784;-77
2022/02/09 19:04:28;;;;;;;0.30;0.20;;;6.40;99.90;;;;;;5074309;28;20533;-77
2022/02/09 19:18:14;;;;;;;0.40;0.30;;;6.40;99.90;;;;;;5074183;28;20444;-77
2022/02/09 19:20:59;;;;;;;0.33;0.33;;;6.40;99.90;;;;;;5074454;28;20429;-78
2022/02/09 19:26:33;;;;;;;0.30;0.20;;;6.40;99.90;;;;;;5074379;28;20533;-78
2022/02/09 19:31:44;;;;;;;0.30;0.30;;;6.40;99.90;;;;;;5051345;28;20428;-78
2022/02/09 19:43:24;;;;;;;0.30;0.30;;;6.40;99.90;;;;;;5073782;28;20413;-77
2022/02/09 19:48:13;;;;;;;0.30;0.30;;;6.40;99.90;;;;;;5073902;28;20550;-78
2022/02/09 19:50:51;;;;;;;0.30;0.20;;;6.40;99.90;;;;;;5073872;28;20440;-78
2022/02/09 19:53:38;;;;;;;0.37;0.27;;;6.30;99.90;;;;;;5073884;28;20433;-77
2022/02/09 19:56:10;;;;;;;0.67;0.30;;;6.30;99.90;;;;;;5073798;28;20477;-77
2022/02/09 19:58:41;;;;;;;0.30;0.30;;;6.30;99.90;;;;;;5073777;28;20513;-77
2022/02/09 20:01:10;;;;;;;0.30;0.20;;;6.30;99.90;;;;;;5073457;28;20916;-77
2022/02/09 20:03:37;;;;;;;0.30;0.20;;;6.20;99.90;;;;;;5073310;28;20971;-77
2022/02/09 20:06:06;;;;;;;0.30;0.30;;;6.20;99.90;;;;;;5073522;28;20469;-78
2022/02/09 20:08:37;;;;;;;0.30;0.20;;;6.10;99.90;;;;;;5073561;28;20579;-77
2022/02/09 20:11:04;;;;;;;0.30;0.30;;;6.10;99.90;;;;;;5073590;28;20467;-77
2022/02/09 20:13:31;;;;;;;0.30;0.30;;;6.10;99.90;;;;;;5073286;28;20452;-77
2022/02/09 20:15:59;;;;;;;0.53;0.53;;;6.00;99.90;;;;;;5073457;28;20448;-78
2022/02/09 20:18:25;;;;;;;0.37;0.30;;;6.00;99.90;;;;;;5073431;28;20531;-78
2022/02/09 20:20:54;;;;;;;0.30;0.20;;;6.00;99.90;;;;;;5073471;28;20940;-77
2022/02/09 20:23:21;;;;;;;0.30;0.30;;;6.00;99.90;;;;;;5073481;28;20451;-78
2022/02/09 20:25:50;;;;;;;0.30;0.30;;;5.90;99.90;;;;;;5073019;28;20999;-77
2022/02/09 20:28:17;;;;;;;0.30;0.30;;;5.90;99.90;;;;;;5073037;28;20480;-77
2022/02/09 20:30:49;;;;;;;0.40;0.30;;;5.90;99.90;;;;;;5073365;28;20448;-77
2022/02/09 20:33:20;;;;;;;0.40;0.30;;;5.90;99.90;;;;;;5073109;28;20931;-78
2022/02/09 20:38:32;;;;;;;0.47;0.47;;;5.80;99.90;;;;;;5011660;28;20843;-78
2022/02/09 20:41:13;;;;;;;0.40;0.30;;;5.70;99.90;;;;;;5012939;28;20447;-78
2022/02/09 20:44:18;;;;;;;0.30;0.30;;;5.70;99.90;;;;;;5013565;28;20436;-78
2022/02/09 20:47:09;;;;;;;0.30;0.27;;;5.60;99.90;;;;;;5013836;28;20479;-78
2022/02/09 20:49:53;;;;;;;0.47;0.40;;;5.60;99.90;;;;;;5012716;28;20511;-78
2022/02/09 20:52:30;;;;;;;0.30;0.30;;;5.50;99.90;;;;;;5011754;28;20451;-78
2022/02/09 20:55:27;;;;;;;0.30;0.30;;;5.40;99.90;;;;;;5012201;28;20450;-78
2022/02/09 20:57:56;;;;;;;0.30;0.20;;;5.40;99.90;;;;;;5053192;22;20996;-77
2022/02/09 21:00:31;;;;;;;0.30;0.30;;;5.40;99.90;;;;;;5053281;28;20454;-78
2022/02/09 21:03:05;;;;;;;0.30;0.30;;;5.30;99.90;;;;;;5053038;28;20491;-77
2022/02/09 21:05:40;;;;;;;0.30;0.20;;;5.30;99.90;;;;;;5052973;28;20442;-78
2022/02/09 21:08:24;;;;;;;0.30;0.30;;;5.20;99.90;;;;;;5032984;28;20466;-77
2022/02/09 21:10:58;;;;;;;1.33;0.40;;;5.20;99.90;;;;;;5032991;28;20442;-78
2022/02/09 21:13:36;;;;;;;0.40;0.33;;;5.10;99.90;;;;;;5033021;28;20436;-78
2022/02/09 21:19:19;;;;;;;0.40;0.30;;;5.00;99.90;;;;;;5031033;28;20467;-78
2022/02/09 21:22:26;;;;;;;0.30;0.30;;;5.00;99.90;;;;;;5032933;28;20473;-78
2022/02/09 21:42:18;;;;;;;0.30;0.30;;;4.60;99.90;;;;;;5036205;28;20825;-78
2022/02/09 21:56:07;;;;;;;0.43;0.43;;;4.40;99.90;;;;;;5035553;28;20463;-77
2022/02/09 21:58:42;;;;;;;0.53;0.53;;;4.30;99.90;;;;;;5035611;28;20459;-77
2022/02/09 22:01:33;;;;;;;0.30;0.30;;;4.30;99.90;;;;;;5036090;28;20426;-77
2022/02/09 22:20:43;;;;;;;0.30;0.30;;;4.00;99.90;;;;;;5035814;28;20486;-77
2022/02/09 22:23:39;;;;;;;0.30;0.20;;;4.00;99.90;;;;;;5035668;28;20434;-77
2022/02/09 22:26:34;;;;;;;0.80;0.50;;;3.90;99.90;;;;;;5036041;28;20470;-77
2022/02/09 22:29:09;;;;;;;0.30;0.30;;;3.90;99.90;;;;;;5035444;28;20543;-77
2022/02/09 22:31:49;;;;;;;0.50;0.50;;;3.80;99.90;;;;;;5035240;28;20439;-78
2022/02/09 22:45:43;;;;;;;0.30;0.20;;;3.90;99.90;;;;;;5035060;28;20457;-77
2022/02/09 22:48:30;;;;;;;0.30;0.20;;;3.90;99.90;;;;;;5035168;28;20439;-77
2022/02/09 22:54:23;;;;;;;0.30;0.20;;;4.00;99.90;;;;;;5034871;28;20447;-78
2022/02/09 22:56:30;;;;;;;0.30;0.30;;;4.30;99.90;;;;;;5034595;28;20593;-77
2022/02/09 22:58:58;;;;;;;0.40;0.30;;;4.40;99.90;;;;;;5034816;28;20489;-78
2022/02/09 23:01:34;;;;;;;0.30;0.20;;;4.40;99.90;;;;;;5034949;28;20450;-78
2022/02/09 23:04:24;;;;;;;0.30;0.20;;;4.40;99.90;;;;;;5034920;28;20448;-77
2022/02/09 23:06:56;;;;;;;0.30;0.20;;;4.50;99.90;;;;;;5075032;22;20484;-77